Time;durP1;ratioP1;P1;durP2;ratioP2;P2;SDS_P1;SDS_P2;PMS_P1;PMS_P2;Temp;Humidity;BMP_temperature;BMP_pressure;BME280_temperature;BME280_humidity;BME280_pressure;Samples;Min_cycle;Max_cycle;Signal;HPM_P1;HPM_P2
2022/10/14 00:00:44;;;;;;;47.17;26.17;;;;;;;-144.22;100.00;60274.75;6084411;29;20595;-70
2022/10/14 00:03:46;;;;;;;43.03;27.67;;;;;;;-144.22;100.00;60274.75;6072377;29;20712;-70
2022/10/14 00:06:50;;;;;;;50.93;30.47;;;;;;;-144.22;100.00;60274.75;6069481;29;20586;-70
2022/10/14 00:09:52;;;;;;;40.77;24.77;;;;;;;-144.22;100.00;60274.75;6086415;29;21151;-70
2022/10/14 00:12:54;;;;;;;50.17;29.30;;;;;;;-144.22;100.00;60274.75;6086498;29;20260;-70
2022/10/14 00:15:57;;;;;;;41.37;24.67;;;;;;;-144.22;100.00;60274.75;6084020;29;20726;-70
2022/10/14 00:19:03;;;;;;;49.43;30.03;;;;;;;-144.22;100.00;60274.75;6082205;29;20239;-71
2022/10/14 00:22:05;;;;;;;49.40;30.17;;;;;;;-144.22;100.00;60274.75;6085872;29;20238;-70
2022/10/14 00:25:07;;;;;;;45.73;27.50;;;;;;;-144.22;100.00;60274.75;6086933;29;20233;-71
2022/10/14 00:28:11;;;;;;;53.83;31.90;;;;;;;-144.22;100.00;60274.75;6086256;29;20237;-70
2022/10/14 00:31:14;;;;;;;42.97;26.53;;;;;;;-144.22;100.00;60274.75;6087238;29;20327;-71
2022/10/14 00:34:17;;;;;;;39.87;25.40;;;;;;;-144.22;100.00;60274.75;6086116;29;20230;-70
2022/10/14 00:37:20;;;;;;;43.60;26.50;;;;;;;-144.22;100.00;60274.75;6085963;29;20234;-70
2022/10/14 00:40:22;;;;;;;36.97;22.67;;;;;;;-144.22;100.00;60274.75;6085837;29;20321;-70
2022/10/14 00:43:26;;;;;;;47.23;28.10;;;;;;;-144.22;100.00;60274.75;6069105;29;20264;-70
2022/10/14 00:46:31;;;;;;;42.70;26.63;;;;;;;-144.22;100.00;60274.75;6085422;29;20736;-70
2022/10/14 00:49:40;;;;;;;48.13;29.83;;;;;;;-144.22;100.00;60274.75;6086005;29;20652;-70
2022/10/14 00:52:44;;;;;;;54.13;32.47;;;;;;;-144.22;100.00;60274.75;6086478;29;20242;-70
2022/10/14 00:55:48;;;;;;;52.33;30.17;;;;;;;-144.22;100.00;60274.75;6085718;29;20249;-70
2022/10/14 00:58:51;;;;;;;53.50;33.20;;;;;;;-144.22;100.00;60274.75;6069150;29;20243;-70
2022/10/14 01:01:53;;;;;;;55.37;31.33;;;;;;;-144.22;100.00;60274.75;6085708;29;20234;-70
2022/10/14 01:04:55;;;;;;;62.57;34.27;;;;;;;-144.22;100.00;60274.75;6085783;29;20242;-70
2022/10/14 01:08:14;;;;;;;55.00;30.23;;;;;;;-144.22;100.00;60274.75;6069490;29;20704;-70
2022/10/14 01:11:30;;;;;;;68.87;35.93;;;;;;;-144.22;100.00;60274.75;6086205;29;20233;-70
2022/10/14 01:14:41;;;;;;;79.23;40.47;;;;;;;-144.22;100.00;60274.75;6085569;29;20610;-69
2022/10/14 01:18:14;;;;;;;60.47;33.53;;;;;;;-144.22;100.00;60274.75;6084688;29;20403;-70
2022/10/14 01:21:42;;;;;;;57.23;30.77;;;;;;;-144.22;100.00;60274.75;6084551;29;20245;-70
2022/10/14 01:25:14;;;;;;;57.93;31.30;;;;;;;-144.22;100.00;60274.75;6085247;29;20231;-70
2022/10/14 01:28:28;;;;;;;57.47;32.23;;;;;;;-144.22;100.00;60274.75;6030937;29;20733;-70
2022/10/14 01:31:35;;;;;;;45.30;28.43;;;;;;;-144.22;100.00;60274.75;6085441;29;20750;-70
2022/10/14 01:34:49;;;;;;;48.00;28.90;;;;;;;-144.22;100.00;60274.75;6067541;29;20270;-70
2022/10/14 01:38:02;;;;;;;37.37;24.73;;;;;;;-144.22;100.00;60274.75;6068586;29;20649;-70
2022/10/14 01:41:16;;;;;;;37.60;25.27;;;;;;;-144.22;100.00;60274.75;6069794;29;20256;-69
2022/10/14 01:44:21;;;;;;;36.07;24.37;;;;;;;-144.22;100.00;60274.75;6068225;29;20608;-70
2022/10/14 01:47:25;;;;;;;38.50;26.40;;;;;;;-144.22;100.00;60274.75;6068840;29;20777;-69
2022/10/14 01:50:30;;;;;;;39.77;27.17;;;;;;;-144.22;100.00;60274.75;6084609;29;20701;-70
2022/10/14 01:53:45;;;;;;;38.63;27.70;;;;;;;-144.22;100.00;60274.75;6068757;29;20654;-69
2022/10/14 01:56:49;;;;;;;38.57;28.00;;;;;;;-144.22;100.00;60274.75;6083475;29;20599;-69
2022/10/14 01:59:53;;;;;;;35.87;26.10;;;;;;;-144.22;100.00;60274.75;6068035;29;20337;-70
2022/10/14 02:02:55;;;;;;;38.50;26.97;;;;;;;-144.22;100.00;60274.75;6078668;29;20697;-69
2022/10/14 02:06:03;;;;;;;34.83;24.73;;;;;;;-144.22;100.00;60274.75;6083084;29;20249;-69
2022/10/14 02:09:31;;;;;;;38.10;25.87;;;;;;;-144.22;100.00;60274.75;6083888;29;20233;-69
2022/10/14 02:13:18;;;;;;;36.47;25.07;;;;;;;-144.22;100.00;60274.75;6036337;29;20365;-69
2022/10/14 02:16:33;;;;;;;36.17;24.23;;;;;;;-144.22;100.00;60274.75;6081108;29;20733;-70
2022/10/14 02:19:47;;;;;;;35.13;24.23;;;;;;;-144.22;100.00;60274.75;6076439;29;20733;-70
2022/10/14 02:23:05;;;;;;;36.33;25.33;;;;;;;-144.22;100.00;60274.75;6077888;29;20234;-69
2022/10/14 02:26:08;;;;;;;37.23;25.23;;;;;;;-144.22;100.00;60274.75;6066832;29;20263;-70
2022/10/14 02:29:11;;;;;;;31.53;23.70;;;;;;;-144.22;100.00;60274.75;6087045;29;20721;-70
2022/10/14 02:32:17;;;;;;;33.37;22.80;;;;;;;-144.22;100.00;60274.75;6087584;29;20240;-69
2022/10/14 02:35:23;;;;;;;30.53;21.90;;;;;;;-144.22;100.00;60274.75;6087367;29;20311;-70
2022/10/14 02:38:30;;;;;;;44.30;29.23;;;;;;;-144.22;100.00;60274.75;6087190;29;20232;-70
2022/10/14 02:41:36;;;;;;;36.80;24.40;;;;;;;-144.22;100.00;60274.75;6055140;29;20236;-70
2022/10/14 02:44:52;;;;;;;41.40;27.73;;;;;;;-144.22;100.00;60274.75;6070051;29;20392;-70
2022/10/14 02:47:54;;;;;;;36.17;24.97;;;;;;;-144.22;100.00;60274.75;6086810;29;20287;-69
2022/10/14 02:50:57;;;;;;;43.93;27.60;;;;;;;-144.22;100.00;60274.75;6070388;29;20245;-69
2022/10/14 02:54:00;;;;;;;38.13;24.73;;;;;;;-144.22;100.00;60274.75;6028749;29;1213010;-69
2022/10/14 02:57:02;;;;;;;32.77;22.27;;;;;;;-144.22;100.00;60274.75;6089284;29;20231;-69
2022/10/14 03:00:05;;;;;;;32.00;22.77;;;;;;;-144.22;100.00;60274.75;6072330;29;20232;-69
2022/10/14 03:03:09;;;;;;;37.23;25.87;;;;;;;-144.22;100.00;60274.75;6071585;29;20702;-70
2022/10/14 03:06:12;;;;;;;31.63;22.30;;;;;;;-144.22;100.00;60274.75;6071134;29;20221;-70
2022/10/14 03:09:14;;;;;;;36.03;25.00;;;;;;;-144.22;100.00;60274.75;6088385;29;20209;-69
2022/10/14 03:12:18;;;;;;;36.97;25.50;;;;;;;-144.22;100.00;60274.75;6070529;29;20208;-69
2022/10/14 03:15:22;;;;;;;34.77;25.97;;;;;;;-144.22;100.00;60274.75;6063532;29;20698;-69
2022/10/14 03:18:25;;;;;;;34.40;24.60;;;;;;;-144.22;100.00;60274.75;6069185;29;20640;-69
2022/10/14 03:21:33;;;;;;;31.73;22.47;;;;;;;-144.22;100.00;60274.75;6083567;29;20237;-70
2022/10/14 03:24:35;;;;;;;31.50;21.87;;;;;;;-144.22;100.00;60274.75;6071913;29;20257;-70
2022/10/14 03:28:06;;;;;;;22.10;18.27;;;;;;;-144.22;100.00;60274.75;6083688;29;20292;-70
2022/10/14 03:31:19;;;;;;;22.87;16.37;;;;;;;-144.22;100.00;60274.75;6071376;29;20668;-70
2022/10/14 03:34:45;;;;;;;25.37;19.30;;;;;;;-144.22;100.00;60274.75;6072106;29;20246;-71
2022/10/14 03:37:53;;;;;;;27.27;19.40;;;;;;;-144.22;100.00;60274.75;6070136;29;20236;-70
2022/10/14 03:41:02;;;;;;;27.77;20.30;;;;;;;-144.22;100.00;60274.75;6069227;29;20230;-70
2022/10/14 03:44:04;;;;;;;23.27;18.23;;;;;;;-144.22;100.00;60274.75;6087276;29;20323;-70
2022/10/14 03:47:08;;;;;;;24.67;19.33;;;;;;;-144.22;100.00;60274.75;6071406;29;20236;-69
2022/10/14 03:50:11;;;;;;;21.80;17.37;;;;;;;-144.22;100.00;60274.75;6071347;29;20247;-70
2022/10/14 03:53:23;;;;;;;20.50;15.57;;;;;;;-144.22;100.00;60274.75;6070514;29;20258;-70
2022/10/14 03:56:26;;;;;;;26.03;18.70;;;;;;;-144.22;100.00;60274.75;6061945;29;20856;-70
2022/10/14 03:59:28;;;;;;;21.73;17.47;;;;;;;-144.22;100.00;60274.75;6063445;29;20241;-70
2022/10/14 04:02:31;;;;;;;22.57;18.07;;;;;;;-144.22;100.00;60274.75;6061572;29;20238;-70
2022/10/14 04:05:33;;;;;;;21.83;17.53;;;;;;;-144.22;100.00;60274.75;6062583;29;20300;-70
2022/10/14 04:08:43;;;;;;;20.63;16.07;;;;;;;-144.22;100.00;60274.75;6065414;29;20241;-69
2022/10/14 04:11:56;;;;;;;19.13;15.07;;;;;;;-144.22;100.00;60274.75;6062343;29;20234;-70
2022/10/14 04:15:17;;;;;;;22.33;16.73;;;;;;;-144.22;100.00;60274.75;6063777;29;20650;-70
2022/10/14 04:18:45;;;;;;;22.93;17.17;;;;;;;-144.22;100.00;60274.75;6043832;29;20499;-70
2022/10/14 04:21:51;;;;;;;23.37;18.10;;;;;;;-144.22;100.00;60274.75;6063266;29;20216;-70
2022/10/14 04:24:55;;;;;;;21.07;16.63;;;;;;;-144.22;100.00;60274.75;6061346;29;20316;-70
2022/10/14 04:27:57;;;;;;;21.30;17.03;;;;;;;-144.22;100.00;60274.75;6062408;29;20247;-70
2022/10/14 04:31:10;;;;;;;21.50;16.43;;;;;;;-144.22;100.00;60274.75;6063904;29;20240;-70
2022/10/14 04:34:26;;;;;;;19.93;16.03;;;;;;;-144.22;100.00;60274.75;6062052;29;20878;-70
2022/10/14 04:37:29;;;;;;;18.57;14.80;;;;;;;-144.22;100.00;60274.75;6061596;29;20246;-70
2022/10/14 04:40:44;;;;;;;20.90;16.43;;;;;;;-144.22;100.00;60274.75;6061558;29;20252;-70
2022/10/14 04:43:47;;;;;;;19.17;14.90;;;;;;;-144.22;100.00;60274.75;6062016;29;20269;-70
2022/10/14 04:47:04;;;;;;;21.73;16.70;;;;;;;-144.22;100.00;60274.75;6065559;29;20234;-70
2022/10/14 04:50:06;;;;;;;18.27;15.77;;;;;;;-144.22;100.00;60274.75;6066474;29;20241;-69
2022/10/14 04:53:10;;;;;;;20.97;15.30;;;;;;;-144.22;100.00;60274.75;6061358;29;20230;-69
2022/10/14 04:56:31;;;;;;;21.30;16.43;;;;;;;-144.22;100.00;60274.75;6060775;29;20386;-70
2022/10/14 04:59:35;;;;;;;23.00;16.93;;;;;;;-144.22;100.00;60274.75;6062392;29;20627;-70
2022/10/14 05:02:43;;;;;;;24.03;17.83;;;;;;;-144.22;100.00;60274.75;6044507;29;20238;-70
2022/10/14 05:05:50;;;;;;;18.13;14.67;;;;;;;-144.22;100.00;60274.75;6062659;29;20237;-70
2022/10/14 05:08:53;;;;;;;14.00;12.20;;;;;;;-144.22;100.00;60274.75;6062501;29;20738;-70
2022/10/14 05:11:56;;;;;;;18.00;14.20;;;;;;;-144.22;100.00;60274.75;6062610;29;20251;-70
2022/10/14 05:15:08;;;;;;;16.93;14.10;;;;;;;-144.22;100.00;60274.75;6061440;29;20237;-70
2022/10/14 05:18:17;;;;;;;20.93;16.27;;;;;;;-144.22;100.00;60274.75;6060065;29;20238;-70
2022/10/14 05:21:37;;;;;;;20.40;15.47;;;;;;;-144.22;100.00;60274.75;6062521;29;20228;-70
2022/10/14 05:24:46;;;;;;;25.93;16.67;;;;;;;-144.22;100.00;60274.75;6060933;29;20296;-70
2022/10/14 05:27:48;;;;;;;21.10;16.03;;;;;;;-144.22;100.00;60274.75;6060137;29;20589;-69
2022/10/14 05:30:51;;;;;;;20.30;15.87;;;;;;;-144.22;100.00;60274.75;6060976;29;20249;-69
2022/10/14 05:33:54;;;;;;;23.20;18.13;;;;;;;-144.22;100.00;60274.75;6060656;29;20233;-70
2022/10/14 05:36:56;;;;;;;20.03;15.77;;;;;;;-144.22;100.00;60274.75;6060804;29;20601;-69
2022/10/14 05:40:00;;;;;;;21.47;16.77;;;;;;;-144.22;100.00;60274.75;6060004;29;20265;-70
2022/10/14 05:43:04;;;;;;;20.67;17.37;;;;;;;-144.22;100.00;60274.75;6060387;29;20331;-70
2022/10/14 05:46:07;;;;;;;20.10;16.83;;;;;;;-144.22;100.00;60274.75;6045761;29;20234;-70
2022/10/14 05:49:13;;;;;;;23.93;18.43;;;;;;;-144.22;100.00;60274.75;6060818;29;20244;-70
2022/10/14 05:52:17;;;;;;;23.17;17.77;;;;;;;-144.22;100.00;60274.75;6061887;29;20252;-69
2022/10/14 05:55:20;;;;;;;21.37;17.80;;;;;;;-144.22;100.00;60274.75;6060045;29;20667;-70
2022/10/14 05:58:22;;;;;;;23.27;17.70;;;;;;;-144.22;100.00;60274.75;6059609;29;20529;-70
2022/10/14 06:01:24;;;;;;;26.50;19.70;;;;;;;-144.22;100.00;60274.75;6055708;29;20587;-70
2022/10/14 06:04:28;;;;;;;24.93;19.60;;;;;;;-144.22;100.00;60274.75;6063500;29;20333;-70
2022/10/14 06:07:30;;;;;;;22.60;17.00;;;;;;;-144.22;100.00;60274.75;6064782;29;20276;-70
2022/10/14 06:10:34;;;;;;;28.53;21.30;;;;;;;-144.22;100.00;60274.75;6063928;29;20745;-70
2022/10/14 06:13:37;;;;;;;24.00;18.23;;;;;;;-144.22;100.00;60274.75;6064562;29;20235;-69
2022/10/14 06:16:41;;;;;;;33.97;23.97;;;;;;;-144.22;100.00;60274.75;6065700;29;20253;-68
2022/10/14 06:19:43;;;;;;;45.30;28.37;;;;;;;-144.22;100.00;60274.75;6063868;29;20743;-68
2022/10/14 06:22:45;;;;;;;40.10;26.23;;;;;;;-144.22;100.00;60274.75;6065587;29;20241;-68
2022/10/14 06:25:47;;;;;;;46.97;29.53;;;;;;;-144.22;100.00;60274.75;6065479;29;20226;-68
2022/10/14 06:28:49;;;;;;;50.57;31.47;;;;;;;-144.22;100.00;60274.75;6066391;29;20242;-69
2022/10/14 06:31:51;;;;;;;55.40;31.80;;;;;;;-144.22;100.00;60274.75;6066013;29;20241;-68
2022/10/14 06:34:53;;;;;;;49.23;32.10;;;;;;;-144.22;100.00;60274.75;6065923;29;20608;-69
2022/10/14 06:37:55;;;;;;;47.90;30.63;;;;;;;-144.22;100.00;60274.75;6065297;29;20560;-69
2022/10/14 06:40:57;;;;;;;53.83;32.40;;;;;;;-144.22;100.00;60274.75;6066045;29;20243;-70
2022/10/14 06:43:59;;;;;;;51.23;34.00;;;;;;;-144.22;100.00;60274.75;6067003;29;20595;-70
2022/10/14 06:47:01;;;;;;;51.23;33.77;;;;;;;-144.22;100.00;60274.75;6065305;29;20239;-68
2022/10/14 06:50:04;;;;;;;49.17;32.93;;;;;;;-144.22;100.00;60274.75;6064391;29;20235;-68
2022/10/14 06:53:06;;;;;;;52.97;33.47;;;;;;;-144.22;100.00;60274.75;6065320;29;20234;-68
2022/10/14 06:56:10;;;;;;;50.83;33.40;;;;;;;-144.22;100.00;60274.75;6083569;29;20238;-68
2022/10/14 06:59:12;;;;;;;53.93;32.00;;;;;;;-144.22;100.00;60274.75;6087677;29;20331;-69
2022/10/14 07:02:14;;;;;;;44.60;28.17;;;;;;;-144.22;100.00;60274.75;6074321;29;20227;-69
2022/10/14 07:05:16;;;;;;;48.57;30.83;;;;;;;-144.22;100.00;60274.75;6082276;29;20241;-69
2022/10/14 07:08:18;;;;;;;45.67;30.43;;;;;;;-144.22;100.00;60274.75;6087709;29;20245;-68
2022/10/14 07:11:20;;;;;;;48.43;31.07;;;;;;;-144.22;100.00;60274.75;6092886;29;20231;-68
2022/10/14 07:14:22;;;;;;;44.87;29.93;;;;;;;-144.22;100.00;60274.75;6088941;29;20234;-69
2022/10/14 07:17:24;;;;;;;42.20;27.47;;;;;;;-144.22;100.00;60274.75;6074875;29;20227;-68
2022/10/14 07:20:26;;;;;;;45.23;29.97;;;;;;;-144.22;100.00;60274.75;6092921;29;20251;-68
2022/10/14 07:23:28;;;;;;;42.47;27.97;;;;;;;-144.22;100.00;60274.75;6092690;29;20248;-68
2022/10/14 07:26:31;;;;;;;38.70;25.97;;;;;;;-144.22;100.00;60274.75;6091557;29;20601;-68
2022/10/14 07:29:33;;;;;;;39.73;25.63;;;;;;;-144.22;100.00;60274.75;6093128;29;20694;-68
2022/10/14 07:32:35;;;;;;;32.97;22.83;;;;;;;-144.22;100.00;60274.75;6091780;29;20231;-69
2022/10/14 07:35:38;;;;;;;34.33;24.70;;;;;;;-144.22;100.00;60274.75;6090081;29;20250;-69
2022/10/14 07:38:40;;;;;;;32.57;22.80;;;;;;;-144.22;100.00;60274.75;6089376;29;20247;-69
2022/10/14 07:41:42;;;;;;;31.80;22.60;;;;;;;-144.22;100.00;60274.75;6085375;29;20238;-69
2022/10/14 07:44:44;;;;;;;31.33;22.17;;;;;;;-144.22;100.00;60274.75;6086431;29;20250;-70
2022/10/14 07:47:49;;;;;;;29.83;21.57;;;;;;;-144.22;100.00;60274.75;6088148;29;20235;-70
2022/10/14 07:50:51;;;;;;;29.00;21.97;;;;;;;-144.22;100.00;60274.75;6063902;29;20243;-69
2022/10/14 07:53:55;;;;;;;27.77;18.53;;;;;;;-144.22;100.00;60274.75;6083690;29;20231;-69
2022/10/14 07:56:57;;;;;;;26.70;19.97;;;;;;;-144.22;100.00;60274.75;6087292;29;20239;-69
2022/10/14 07:59:59;;;;;;;25.27;19.00;;;;;;;15.25;100.00;60274.75;6087839;29;20231;-69
2022/10/14 08:03:01;;;;;;;27.13;19.87;;;;;;;12.15;100.00;60274.75;6069363;29;20309;-70
2022/10/14 08:06:04;;;;;;;21.63;17.10;;;;;;;12.11;100.00;60274.75;6086785;29;20204;-69
2022/10/14 08:09:08;;;;;;;28.63;20.67;;;;;;;-144.22;100.00;60274.75;6070335;29;20204;-70
2022/10/14 08:12:10;;;;;;;21.50;16.33;;;;;;;-144.22;100.00;60274.75;6086867;29;20219;-69
2022/10/14 08:15:12;;;;;;;22.87;17.33;;;;;;;-144.22;100.00;60274.75;6069349;29;20216;-70
2022/10/14 08:18:14;;;;;;;23.33;17.63;;;;;;;12.49;100.00;60274.75;6086460;29;20588;-70
2022/10/14 08:21:18;;;;;;;22.43;17.53;;;;;;;12.65;100.00;60274.75;6086429;29;20238;-70
2022/10/14 08:24:20;;;;;;;22.63;16.97;;;;;;;-144.22;100.00;60274.75;6086133;29;20219;-70
2022/10/14 08:27:25;;;;;;;21.43;16.83;;;;;;;-144.22;100.00;60274.75;6085527;29;20235;-70
2022/10/14 08:30:27;;;;;;;20.73;16.80;;;;;;;-144.22;100.00;60274.75;6086637;29;20224;-69
2022/10/14 08:33:29;;;;;;;18.70;15.50;;;;;;;-144.22;100.00;60274.75;6085990;29;20239;-69
2022/10/14 08:36:31;;;;;;;18.43;14.40;;;;;;;188.01;100.00;60274.75;6084760;29;20231;-69
2022/10/14 08:39:33;;;;;;;18.00;14.00;;;;;;;-144.22;100.00;60274.75;6086888;29;20609;-70
2022/10/14 08:42:58;;;;;;;15.77;13.30;;;;;;;-144.22;100.00;60274.75;6085602;29;20715;-71
2022/10/14 08:46:12;;;;;;;13.90;11.67;;;;;;;15.25;100.00;60274.75;6085508;29;20248;-70
2022/10/14 08:49:31;;;;;;;14.10;11.77;;;;;;;-144.22;100.00;60274.75;6062898;29;20615;-70
2022/10/14 08:52:42;;;;;;;12.77;10.83;;;;;;;-144.22;100.00;60274.75;6084304;29;20252;-70
2022/10/14 08:55:47;;;;;;;11.23;10.03;;;;;;;-144.22;100.00;60274.75;6061330;29;20267;-70
2022/10/14 08:58:51;;;;;;;12.50;10.23;;;;;;;-144.22;100.00;60274.75;6062950;29;20244;-71
2022/10/14 09:02:00;;;;;;;11.07;8.73;;;;;;;14.67;100.00;60274.75;6051323;29;20320;-70
2022/10/14 09:05:05;;;;;;;10.23;8.07;;;;;;;-144.22;100.00;60274.75;6066444;29;20228;-71
2022/10/14 09:08:13;;;;;;;7.70;6.90;;;;;;;-144.22;100.00;60274.75;6062009;29;20228;-71
2022/10/14 09:11:19;;;;;;;8.63;6.47;;;;;;;-144.22;100.00;60274.75;6060894;29;20732;-71
2022/10/14 09:14:26;;;;;;;7.47;5.50;;;;;;;-144.22;100.00;60274.75;6060841;29;20228;-71
2022/10/14 09:17:39;;;;;;;7.40;5.13;;;;;;;-144.22;100.00;60274.75;6061651;29;20372;-71
2022/10/14 09:20:45;;;;;;;4.63;4.13;;;;;;;-144.22;100.00;60274.75;6062917;29;20244;-71
2022/10/14 09:23:55;;;;;;;5.57;3.57;;;;;;;-144.22;100.00;60274.75;6061740;29;20600;-71
2022/10/14 09:27:03;;;;;;;4.73;4.20;;;;;;;-144.22;100.00;60274.75;6060716;29;20237;-71
2022/10/14 09:30:09;;;;;;;3.63;3.23;;;;;;;-144.22;100.00;60274.75;6060346;29;20949;-71
2022/10/14 09:33:19;;;;;;;5.03;3.77;;;;;;;-144.22;100.00;60274.75;6062128;29;20216;-71
2022/10/14 09:36:22;;;;;;;4.90;4.30;;;;;;;14.97;100.00;60274.75;6061543;29;20239;-70
2022/10/14 09:39:24;;;;;;;5.77;4.20;;;;;;;15.19;100.00;60274.75;6066035;29;20239;-71
2022/10/14 09:42:41;;;;;;;5.70;3.73;;;;;;;-144.22;100.00;60274.75;6066314;29;20228;-71
2022/10/14 09:45:55;;;;;;;4.67;4.03;;;;;;;-144.22;100.00;60274.75;6067206;29;20332;-71
2022/10/14 09:48:57;;;;;;;7.23;4.27;;;;;;;-144.22;100.00;60274.75;6066122;29;20233;-71
2022/10/14 09:52:01;;;;;;;3.97;3.57;;;;;;;-144.22;100.00;60274.75;6066187;29;20332;-71
2022/10/14 09:55:16;;;;;;;3.70;3.13;;;;;;;-144.22;100.00;60274.75;6076749;29;20283;-72
2022/10/14 09:58:28;;;;;;;2.93;2.70;;;;;;;-144.22;100.00;60274.75;6089042;29;20232;-72
2022/10/14 10:01:40;;;;;;;2.63;2.17;;;;;;;-144.22;100.00;60274.75;6082848;29;20388;-72
2022/10/14 10:04:46;;;;;;;3.33;2.70;;;;;;;-144.22;100.00;60274.75;6084569;29;20328;-71
2022/10/14 10:08:14;;;;;;;2.67;2.47;;;;;;;15.25;100.00;60274.75;6089708;29;20236;-71
2022/10/14 10:11:38;;;;;;;2.40;2.20;;;;;;;-144.22;100.00;60274.75;6088926;29;20230;-71
2022/10/14 10:14:40;;;;;;;2.97;2.40;;;;;;;15.21;100.00;60274.75;6072135;29;20327;-71
2022/10/14 10:17:43;;;;;;;2.77;2.03;;;;;;;-144.22;100.00;60274.75;6087425;29;20234;-71
2022/10/14 10:21:00;;;;;;;2.13;1.97;;;;;;;-144.22;100.00;60274.75;6089145;29;20279;-71
2022/10/14 10:24:16;;;;;;;1.90;1.43;;;;;;;-144.22;100.00;60274.75;6088690;29;20240;-70
2022/10/14 10:27:27;;;;;;;1.90;1.60;;;;;;;15.25;100.00;60274.75;6071582;29;20200;-72
2022/10/14 10:30:42;;;;;;;2.07;1.30;;;;;;;-144.22;100.00;60274.75;6088908;29;20255;-71
2022/10/14 10:34:04;;;;;;;1.30;1.20;;;;;;;-144.22;100.00;60274.75;6088706;29;20232;-71
2022/10/14 10:37:23;;;;;;;2.50;1.27;;;;;;;15.33;100.00;60274.75;6089382;29;20228;-71
2022/10/14 10:40:53;;;;;;;3.90;1.23;;;;;;;-144.22;100.00;60274.75;6071996;29;20311;-71
2022/10/14 10:44:29;;;;;;;1.50;1.20;;;;;;;-144.22;100.00;60274.75;6070836;29;20231;-71
2022/10/14 10:47:45;;;;;;;1.90;1.17;;;;;;;-144.22;100.00;60274.75;6089572;29;20700;-71
2022/10/14 10:51:04;;;;;;;1.73;1.07;;;;;;;-144.22;100.00;60274.75;6087941;29;20248;-71
2022/10/14 10:54:08;;;;;;;1.20;1.10;;;;;;;-144.22;100.00;60274.75;6070440;29;20221;-70
2022/10/14 10:57:30;;;;;;;1.53;1.00;;;;;;;-144.22;100.00;60274.75;6088551;29;20212;-71
2022/10/14 11:01:09;;;;;;;1.53;1.10;;;;;;;-144.22;100.00;60274.75;6088734;29;20231;-71
2022/10/14 11:04:24;;;;;;;0.93;0.93;;;;;;;-144.22;100.00;60274.75;6033185;29;20772;-71
2022/10/14 11:14:53;;;;;;;0.57;0.57;;;;;;;-144.22;100.00;60274.75;6088189;29;20236;-71
2022/10/14 11:18:04;;;;;;;0.70;0.70;;;;;;;-144.22;100.00;60274.75;6070286;29;20232;-71
2022/10/14 11:21:16;;;;;;;2.87;1.07;;;;;;;17.85;100.00;60274.75;6087412;29;20240;-71
2022/10/14 11:24:41;;;;;;;2.00;0.83;;;;;;;-144.22;100.00;60274.75;6087774;29;20232;-71
2022/10/14 11:27:51;;;;;;;1.13;0.53;;;;;;;-144.22;100.00;60274.75;6070438;29;20245;-72
2022/10/14 11:31:31;;;;;;;1.23;0.80;;;;;;;-144.22;100.00;60274.75;6086543;29;20242;-71
2022/10/14 11:34:40;;;;;;;1.60;0.90;;;;;;;-144.22;100.00;60274.75;6086776;29;20236;-71
2022/10/14 11:38:14;;;;;;;1.57;0.80;;;;;;;17.21;100.00;60274.75;6087289;29;20779;-71
2022/10/14 11:41:22;;;;;;;0.70;0.70;;;;;;;-144.22;100.00;60274.75;6086527;29;20708;-71
2022/10/14 11:44:36;;;;;;;0.70;0.70;;;;;;;-144.22;100.00;60274.75;6070343;29;20232;-71
2022/10/14 11:47:40;;;;;;;1.27;0.67;;;;;;;-144.22;100.00;60274.75;6087262;29;20252;-71
2022/10/14 11:50:48;;;;;;;0.73;0.70;;;;;;;-144.22;100.00;60274.75;6086335;29;20626;-71
2022/10/14 11:54:23;;;;;;;1.23;0.80;;;;;;;-144.22;100.00;60274.75;6087193;29;20987;-71
2022/10/14 11:57:37;;;;;;;0.70;0.63;;;;;;;-144.22;100.00;60274.75;6086235;29;20698;-70
2022/10/14 12:01:11;;;;;;;1.10;0.70;;;;;;;17.85;100.00;60274.75;6075248;29;20372;-71
2022/10/14 12:04:24;;;;;;;0.93;0.80;;;;;;;-144.22;100.00;60274.75;6085869;29;20239;-71
2022/10/14 12:07:34;;;;;;;1.87;0.77;;;;;;;19.15;100.00;60274.75;6086260;29;20774;-71
2022/10/14 12:10:46;;;;;;;1.57;0.60;;;;;;;-144.22;100.00;60274.75;6069543;29;20232;-71
2022/10/14 12:13:53;;;;;;;0.80;0.80;;;;;;;-144.22;100.00;60274.75;6069762;29;20458;-71
2022/10/14 12:16:58;;;;;;;1.10;0.63;;;;;;;17.85;100.00;60274.75;6086426;29;20230;-71
2022/10/14 12:20:21;;;;;;;1.80;0.50;;;;;;;-144.22;100.00;60274.75;6079774;29;20231;-71
2022/10/14 12:23:44;;;;;;;0.70;0.70;;;;;;;-144.22;100.00;60274.75;6086711;29;20246;-71
2022/10/14 12:27:04;;;;;;;1.63;0.60;;;;;;;-144.22;100.00;60274.75;6086594;29;20380;-71
2022/10/14 12:30:34;;;;;;;0.53;0.53;;;;;;;-144.22;100.00;60274.75;6085742;29;20232;-70
2022/10/14 12:34:14;;;;;;;1.90;0.73;;;;;;;-144.22;100.00;60274.75;6086896;29;20232;-71
2022/10/14 12:37:28;;;;;;;0.67;0.60;;;;;;;-144.22;100.00;60274.75;6085648;29;20243;-71
2022/10/14 12:40:35;;;;;;;1.80;0.77;;;;;;;-144.22;100.00;60274.75;6085355;29;20606;-71
2022/10/14 12:43:37;;;;;;;0.60;0.60;;;;;;;188.01;100.00;60274.75;6085592;29;20626;-70
2022/10/14 12:46:48;;;;;;;3.63;1.00;;;;;;;-144.22;100.00;60274.75;6084439;29;20686;-71
2022/10/14 12:49:55;;;;;;;0.50;0.47;;;;;;;-144.22;100.00;60274.75;6086422;29;20739;-71
2022/10/14 12:53:00;;;;;;;0.70;0.60;;;;;;;-144.22;100.00;60274.75;6086286;29;20227;-71
2022/10/14 12:56:04;;;;;;;0.67;0.60;;;;;;;-144.22;100.00;60274.75;6085627;29;20795;-71
2022/10/14 12:59:19;;;;;;;2.13;0.60;;;;;;;-144.22;100.00;60274.75;6084954;29;20238;-71
2022/10/14 13:02:34;;;;;;;2.07;0.77;;;;;;;16.41;100.00;60274.75;6081538;29;20549;-70
2022/10/14 13:05:38;;;;;;;0.80;0.70;;;;;;;-144.22;100.00;60274.75;6070935;29;20288;-71
2022/10/14 13:08:40;;;;;;;1.30;1.20;;;;;;;16.36;100.00;60274.75;6085415;29;20224;-71
2022/10/14 13:12:03;;;;;;;1.83;1.00;;;;;;;-144.22;100.00;60274.75;6086290;29;20239;-71
2022/10/14 13:15:33;;;;;;;0.80;0.80;;;;;;;-144.22;100.00;60274.75;6083999;29;20588;-71
2022/10/14 13:18:38;;;;;;;2.40;0.60;;;;;;;-144.22;100.00;60274.75;6063930;29;20244;-70
2022/10/14 13:21:40;;;;;;;1.57;0.70;;;;;;;16.51;100.00;60274.75;6062795;29;20245;-70
2022/10/14 13:24:42;;;;;;;3.03;1.13;;;;;;;-144.22;100.00;60274.75;6084638;29;20246;-70
2022/10/14 13:28:07;;;;;;;3.80;1.37;;;;;;;-144.22;100.00;60274.75;6084529;29;20237;-70
2022/10/14 13:31:25;;;;;;;2.37;1.50;;;;;;;16.19;100.00;60274.75;6080311;29;20229;-70
2022/10/14 13:34:48;;;;;;;4.40;2.00;;;;;;;-144.22;100.00;60274.75;6084929;29;20231;-70
2022/10/14 13:38:01;;;;;;;2.93;2.60;;;;;;;-144.22;100.00;60274.75;6084924;29;20240;-71
2022/10/14 13:41:05;;;;;;;4.07;3.13;;;;;;;-144.22;100.00;60274.75;6069390;29;20771;-71
2022/10/14 13:44:09;;;;;;;3.20;2.90;;;;;;;-144.22;100.00;60274.75;6067713;29;20232;-71
2022/10/14 13:47:13;;;;;;;3.13;2.70;;;;;;;-144.22;100.00;60274.75;6068283;29;20619;-71
2022/10/14 13:50:22;;;;;;;3.47;2.70;;;;;;;-144.22;100.00;60274.75;6082737;29;20238;-71
2022/10/14 13:53:24;;;;;;;3.53;3.20;;;;;;;-144.22;100.00;60274.75;6084944;29;20319;-70
2022/10/14 13:56:29;;;;;;;3.20;2.90;;;;;;;-144.22;100.00;60274.75;6085587;29;20243;-71
2022/10/14 13:59:36;;;;;;;4.43;3.40;;;;;;;-144.22;100.00;60274.75;6052524;29;20607;-70
2022/10/14 14:02:58;;;;;;;5.43;3.40;;;;;;;-144.22;100.00;60274.75;6081314;29;20712;-71
2022/10/14 14:06:13;;;;;;;3.27;3.03;;;;;;;-144.22;100.00;60274.75;6084121;29;20236;-71
2022/10/14 14:09:22;;;;;;;4.57;4.10;;;;;;;-144.22;100.00;60274.75;6085624;29;20228;-71
2022/10/14 14:12:24;;;;;;;3.50;3.20;;;;;;;-144.22;100.00;60274.75;6085707;29;20247;-71